Aeroporto :
LOGIN :

Iscrizione | Disclaimer

   EN    FR    IT 

 










Sommario :    VFR   VFR Marginale   IFR   IFR Intensivo   IFR Molto Intensivo
Visibilità : 
Base nubi : 
>= 8 km
>= 3000ft
5 / 8 km
1000 / 3000 ft
1500m / 5 km
500 / 1000 ft
800 / 1500m
200 / 500 ft
< 800m
< 200 ft
Simboli :   Temporali  Nebbia  Neve Forte  Precipitazioni Forti  Vento > 20 kt
SIGMETs :   Varie  Temporali  Ghiacco  Turbolenza  Onda orograficha  Ceneri Vulcaniche







- Altitudine del aeroporto : 659 ft
- Codice IATA : LGG


EBLG - Liège

ULTIMO METAR :
  • 211020Z 23008KT 200V270 9999 SCT020 20/13 Q1022 NOSIG

METARs OBSOLETI :
  • 210950Z 24008KT 9999 SCT020 19/14 Q1022 NOSIG
  • 210920Z 23007KT 200V270 9999 BKN016 19/14 Q1022 NOSIG
  • 210850Z 24007KT 9999 BKN015 18/14 Q1021 NOSIG
  • 210820Z 23008KT 190V250 9999 BKN013 18/14 Q1021 BECMG BKN015
  • 210750Z 22007KT 190V250 9999 BKN011 17/14 Q1021 NOSIG
  • 210720Z 24007KT 9999 SCT010 BKN015 16/14 Q1021 NOSIG

TAF TAF EBLG
Valido dal 21 a 06 ore il 22 a 12 ore UTC


210510Z 2106/2212 24007KT 9999 FEW025 SCT045
Nessun NOTAM noto per questo aeroporto.



MetMap, La meteo Aeronautica in un colpo d'occhio ! - Copyright ORBIFLY Dicembre 2007 - Disclaimer

ORBIFLY MET'MAP TEAM :

Programmazione e sviluppo : Alexandra Zaïnal
Concezione e sviluppo : Baudouin d'Aumeries
Co-Programmazione e sviluppo : Marc-Olivier Méhu
Supporto tecnico e logistico : Manuel Goepfert
Aiuto per la traduzione : Arnaldo La Scala

Contatto : metmap@orbifly.com




FONTI E CREDITI :

   NOAA